sensor_id;sensor_type;location;lat;lon;timestamp;temperature;humidity
60717;DHT22;46566;52.700;6.192;2022-08-14T00:00:23;22.80;92.50
60717;DHT22;46566;52.700;6.192;2022-08-14T00:02:49;22.80;93.80
60717;DHT22;46566;52.700;6.192;2022-08-14T00:05:18;22.70;91.70
60717;DHT22;46566;52.700;6.192;2022-08-14T00:07:45;22.70;93.60
60717;DHT22;46566;52.700;6.192;2022-08-14T00:10:15;22.60;94.60
60717;DHT22;46566;52.700;6.192;2022-08-14T00:12:47;22.60;93.80
60717;DHT22;46566;52.700;6.192;2022-08-14T00:15:30;22.60;96.10
60717;DHT22;46566;52.700;6.192;2022-08-14T00:17:57;22.60;95.10
60717;DHT22;46566;52.700;6.192;2022-08-14T00:20:32;22.60;95.20
60717;DHT22;46566;52.700;6.192;2022-08-14T00:22:59;22.60;95.50
60717;DHT22;46566;52.700;6.192;2022-08-14T00:25:26;22.50;93.80
60717;DHT22;46566;52.700;6.192;2022-08-14T00:27:53;22.50;94.20
60717;DHT22;46566;52.700;6.192;2022-08-14T00:30:19;22.50;96.50
60717;DHT22;46566;52.700;6.192;2022-08-14T00:32:45;22.40;96.30
60717;DHT22;46566;52.700;6.192;2022-08-14T00:35:11;22.40;96.20
60717;DHT22;46566;52.700;6.192;2022-08-14T00:37:39;22.40;97.00
60717;DHT22;46566;52.700;6.192;2022-08-14T00:40:07;22.40;95.00
60717;DHT22;46566;52.700;6.192;2022-08-14T00:42:33;22.40;97.30
60717;DHT22;46566;52.700;6.192;2022-08-14T00:44:59;22.30;96.60
60717;DHT22;46566;52.700;6.192;2022-08-14T00:47:25;22.30;96.30
60717;DHT22;46566;52.700;6.192;2022-08-14T00:49:52;22.30;96.60
60717;DHT22;46566;52.700;6.192;2022-08-14T00:52:19;22.30;96.50
60717;DHT22;46566;52.700;6.192;2022-08-14T00:54:48;22.30;95.90
60717;DHT22;46566;52.700;6.192;2022-08-14T00:57:18;22.20;97.90
60717;DHT22;46566;52.700;6.192;2022-08-14T00:59:44;22.20;97.50
60717;DHT22;46566;52.700;6.192;2022-08-14T01:02:11;22.20;97.60
60717;DHT22;46566;52.700;6.192;2022-08-14T01:04:38;22.20;99.10
60717;DHT22;46566;52.700;6.192;2022-08-14T01:07:04;22.20;97.90
60717;DHT22;46566;52.700;6.192;2022-08-14T01:09:31;22.20;98.90
60717;DHT22;46566;52.700;6.192;2022-08-14T01:11:57;22.10;98.90
60717;DHT22;46566;52.700;6.192;2022-08-14T01:14:24;22.10;99.50
60717;DHT22;46566;52.700;6.192;2022-08-14T01:16:51;22.10;98.50
60717;DHT22;46566;52.700;6.192;2022-08-14T01:19:16;22.00;99.50
60717;DHT22;46566;52.700;6.192;2022-08-14T01:22:01;22.00;99.90
60717;DHT22;46566;52.700;6.192;2022-08-14T01:24:28;22.00;98.50
60717;DHT22;46566;52.700;6.192;2022-08-14T01:26:53;22.00;99.40
60717;DHT22;46566;52.700;6.192;2022-08-14T01:29:19;22.00;99.50
60717;DHT22;46566;52.700;6.192;2022-08-14T01:31:45;22.00;99.90
60717;DHT22;46566;52.700;6.192;2022-08-14T01:34:11;21.90;99.90
60717;DHT22;46566;52.700;6.192;2022-08-14T01:36:37;21.90;99.90
60717;DHT22;46566;52.700;6.192;2022-08-14T01:39:14;21.90;99.90
60717;DHT22;46566;52.700;6.192;2022-08-14T01:41:44;21.90;99.90
60717;DHT22;46566;52.700;6.192;2022-08-14T01:44:13;21.90;99.90
60717;DHT22;46566;52.700;6.192;2022-08-14T01:46:42;21.90;99.90
60717;DHT22;46566;52.700;6.192;2022-08-14T01:49:11;21.80;99.90
60717;DHT22;46566;52.700;6.192;2022-08-14T01:51:40;21.80;99.90
60717;DHT22;46566;52.700;6.192;2022-08-14T01:54:14;21.70;99.90
60717;DHT22;46566;52.700;6.192;2022-08-14T01:56:41;21.70;99.90
60717;DHT22;46566;52.700;6.192;2022-08-14T01:59:17;21.70;99.90
60717;DHT22;46566;52.700;6.192;2022-08-14T02:01:48;21.70;99.90
60717;DHT22;46566;52.700;6.192;2022-08-14T02:04:16;21.60;99.90
60717;DHT22;46566;52.700;6.192;2022-08-14T02:06:42;21.60;99.90
60717;DHT22;46566;52.700;6.192;2022-08-14T02:09:09;21.50;99.90
60717;DHT22;46566;52.700;6.192;2022-08-14T02:11:35;21.50;99.90
60717;DHT22;46566;52.700;6.192;2022-08-14T02:14:04;21.50;99.90
60717;DHT22;46566;52.700;6.192;2022-08-14T02:16:39;21.50;99.90
60717;DHT22;46566;52.700;6.192;2022-08-14T02:19:08;21.50;99.90
60717;DHT22;46566;52.700;6.192;2022-08-14T02:21:34;21.40;99.90
60717;DHT22;46566;52.700;6.192;2022-08-14T02:24:02;21.40;99.90
60717;DHT22;46566;52.700;6.192;2022-08-14T02:26:31;21.30;99.90
60717;DHT22;46566;52.700;6.192;2022-08-14T02:29:03;21.30;99.90
60717;DHT22;46566;52.700;6.192;2022-08-14T02:31:32;21.30;99.90
60717;DHT22;46566;52.700;6.192;2022-08-14T02:34:13;21.30;99.90
60717;DHT22;46566;52.700;6.192;2022-08-14T02:36:40;21.20;99.90
60717;DHT22;46566;52.700;6.192;2022-08-14T02:39:08;21.20;99.90
60717;DHT22;46566;52.700;6.192;2022-08-14T02:41:34;21.20;99.90
60717;DHT22;46566;52.700;6.192;2022-08-14T02:44:01;21.10;99.90
60717;DHT22;46566;52.700;6.192;2022-08-14T02:46:27;21.10;99.90
60717;DHT22;46566;52.700;6.192;2022-08-14T02:48:55;21.00;99.90
60717;DHT22;46566;52.700;6.192;2022-08-14T02:51:22;21.00;99.90
60717;DHT22;46566;52.700;6.192;2022-08-14T02:53:47;21.00;99.90
60717;DHT22;46566;52.700;6.192;2022-08-14T02:56:16;20.90;99.90
60717;DHT22;46566;52.700;6.192;2022-08-14T02:58:48;20.90;99.90
60717;DHT22;46566;52.700;6.192;2022-08-14T03:01:17;20.80;99.90
60717;DHT22;46566;52.700;6.192;2022-08-14T03:03:45;20.80;99.90
60717;DHT22;46566;52.700;6.192;2022-08-14T03:06:12;20.80;99.90
60717;DHT22;46566;52.700;6.192;2022-08-14T03:08:40;20.80;99.90
60717;DHT22;46566;52.700;6.192;2022-08-14T03:11:08;20.80;99.90
60717;DHT22;46566;52.700;6.192;2022-08-14T03:13:36;20.80;99.90
60717;DHT22;46566;52.700;6.192;2022-08-14T03:16:04;20.80;99.90
60717;DHT22;46566;52.700;6.192;2022-08-14T03:18:30;20.90;99.90
60717;DHT22;46566;52.700;6.192;2022-08-14T03:20:58;20.90;99.90
60717;DHT22;46566;52.700;6.192;2022-08-14T03:23:24;20.90;99.90
60717;DHT22;46566;52.700;6.192;2022-08-14T03:25:50;20.90;99.90
60717;DHT22;46566;52.700;6.192;2022-08-14T03:28:16;20.90;99.90
60717;DHT22;46566;52.700;6.192;2022-08-14T03:30:41;20.90;99.90
60717;DHT22;46566;52.700;6.192;2022-08-14T03:33:09;20.90;99.90
60717;DHT22;46566;52.700;6.192;2022-08-14T03:35:35;20.90;99.90
60717;DHT22;46566;52.700;6.192;2022-08-14T03:38:09;20.90;99.90
60717;DHT22;46566;52.700;6.192;2022-08-14T03:40:38;20.80;99.90
60717;DHT22;46566;52.700;6.192;2022-08-14T03:43:07;20.80;99.90
60717;DHT22;46566;52.700;6.192;2022-08-14T03:45:35;20.80;99.90
60717;DHT22;46566;52.700;6.192;2022-08-14T03:48:11;20.80;99.90
60717;DHT22;46566;52.700;6.192;2022-08-14T03:50:45;20.80;99.90
60717;DHT22;46566;52.700;6.192;2022-08-14T03:53:12;20.70;99.90
60717;DHT22;46566;52.700;6.192;2022-08-14T03:55:39;20.70;99.90
60717;DHT22;46566;52.700;6.192;2022-08-14T03:58:06;20.70;99.90
60717;DHT22;46566;52.700;6.192;2022-08-14T04:00:33;20.70;99.90
60717;DHT22;46566;52.700;6.192;2022-08-14T04:03:01;20.70;99.90
60717;DHT22;46566;52.700;6.192;2022-08-14T04:05:36;20.70;99.90
60717;DHT22;46566;52.700;6.192;2022-08-14T04:08:22;20.70;99.90
60717;DHT22;46566;52.700;6.192;2022-08-14T04:11:07;20.60;99.90
60717;DHT22;46566;52.700;6.192;2022-08-14T04:13:41;20.60;99.90
60717;DHT22;46566;52.700;6.192;2022-08-14T04:16:16;20.60;99.90
60717;DHT22;46566;52.700;6.192;2022-08-14T04:18:45;20.60;99.90
60717;DHT22;46566;52.700;6.192;2022-08-14T04:21:12;20.60;99.90
60717;DHT22;46566;52.700;6.192;2022-08-14T04:23:39;20.50;99.90
60717;DHT22;46566;52.700;6.192;2022-08-14T04:26:07;20.50;99.90
60717;DHT22;46566;52.700;6.192;2022-08-14T04:28:34;20.50;99.90
60717;DHT22;46566;52.700;6.192;2022-08-14T04:31:02;20.50;99.90
60717;DHT22;46566;52.700;6.192;2022-08-14T04:33:27;20.40;99.90
60717;DHT22;46566;52.700;6.192;2022-08-14T04:35:54;20.40;99.90
60717;DHT22;46566;52.700;6.192;2022-08-14T04:38:20;20.40;99.90
60717;DHT22;46566;52.700;6.192;2022-08-14T04:41:05;20.40;99.90
60717;DHT22;46566;52.700;6.192;2022-08-14T04:43:51;20.40;99.90
60717;DHT22;46566;52.700;6.192;2022-08-14T04:46:20;20.40;99.90
60717;DHT22;46566;52.700;6.192;2022-08-14T04:48:46;20.40;99.90
60717;DHT22;46566;52.700;6.192;2022-08-14T04:51:15;20.40;99.90
60717;DHT22;46566;52.700;6.192;2022-08-14T04:53:45;20.30;99.90
60717;DHT22;46566;52.700;6.192;2022-08-14T04:56:12;20.30;99.90
60717;DHT22;46566;52.700;6.192;2022-08-14T04:58:40;20.30;99.90
60717;DHT22;46566;52.700;6.192;2022-08-14T05:01:09;20.40;99.90
60717;DHT22;46566;52.700;6.192;2022-08-14T05:03:36;20.30;99.90
60717;DHT22;46566;52.700;6.192;2022-08-14T05:06:08;20.30;99.90
60717;DHT22;46566;52.700;6.192;2022-08-14T05:08:37;20.30;99.90
60717;DHT22;46566;52.700;6.192;2022-08-14T05:11:05;20.30;99.90
60717;DHT22;46566;52.700;6.192;2022-08-14T05:13:33;20.30;99.90
60717;DHT22;46566;52.700;6.192;2022-08-14T05:16:00;20.30;99.90
60717;DHT22;46566;52.700;6.192;2022-08-14T05:18:32;20.30;99.90
60717;DHT22;46566;52.700;6.192;2022-08-14T05:21:00;20.30;99.90
60717;DHT22;46566;52.700;6.192;2022-08-14T05:23:29;20.40;99.90
60717;DHT22;46566;52.700;6.192;2022-08-14T05:25:58;20.40;99.90
60717;DHT22;46566;52.700;6.192;2022-08-14T05:28:43;20.40;99.90
60717;DHT22;46566;52.700;6.192;2022-08-14T05:31:12;20.40;99.90
60717;DHT22;46566;52.700;6.192;2022-08-14T05:33:39;20.40;99.90
60717;DHT22;46566;52.700;6.192;2022-08-14T05:36:07;20.40;99.90
60717;DHT22;46566;52.700;6.192;2022-08-14T05:38:36;20.40;99.90
60717;DHT22;46566;52.700;6.192;2022-08-14T05:41:14;20.50;99.90
60717;DHT22;46566;52.700;6.192;2022-08-14T05:43:40;20.50;99.90
60717;DHT22;46566;52.700;6.192;2022-08-14T05:46:11;20.50;99.90
60717;DHT22;46566;52.700;6.192;2022-08-14T05:48:37;20.50;99.90
60717;DHT22;46566;52.700;6.192;2022-08-14T05:51:04;20.60;99.90
60717;DHT22;46566;52.700;6.192;2022-08-14T05:53:29;20.60;99.90
60717;DHT22;46566;52.700;6.192;2022-08-14T05:55:55;20.70;99.90
60717;DHT22;46566;52.700;6.192;2022-08-14T05:58:27;20.80;99.90
60717;DHT22;46566;52.700;6.192;2022-08-14T06:00:53;20.90;99.90
60717;DHT22;46566;52.700;6.192;2022-08-14T06:03:24;21.00;99.90
60717;DHT22;46566;52.700;6.192;2022-08-14T06:08:25;21.20;99.90
60717;DHT22;46566;52.700;6.192;2022-08-14T06:10:53;21.20;99.90
60717;DHT22;46566;52.700;6.192;2022-08-14T06:13:20;21.20;99.90
60717;DHT22;46566;52.700;6.192;2022-08-14T06:15:47;21.30;99.90
60717;DHT22;46566;52.700;6.192;2022-08-14T06:18:14;21.30;99.90
60717;DHT22;46566;52.700;6.192;2022-08-14T06:20:40;21.40;99.90
60717;DHT22;46566;52.700;6.192;2022-08-14T06:23:06;21.30;99.90
60717;DHT22;46566;52.700;6.192;2022-08-14T06:25:32;21.30;99.90
60717;DHT22;46566;52.700;6.192;2022-08-14T06:27:58;21.30;99.90
60717;DHT22;46566;52.700;6.192;2022-08-14T06:30:29;21.30;99.90
60717;DHT22;46566;52.700;6.192;2022-08-14T06:32:56;21.40;99.90
60717;DHT22;46566;52.700;6.192;2022-08-14T06:35:21;21.40;99.90
60717;DHT22;46566;52.700;6.192;2022-08-14T06:37:54;21.50;99.90
60717;DHT22;46566;52.700;6.192;2022-08-14T06:40:24;21.60;99.90
60717;DHT22;46566;52.700;6.192;2022-08-14T06:42:51;21.60;99.90
60717;DHT22;46566;52.700;6.192;2022-08-14T06:45:17;21.70;99.90
60717;DHT22;46566;52.700;6.192;2022-08-14T06:47:44;21.70;99.90
60717;DHT22;46566;52.700;6.192;2022-08-14T06:50:13;21.80;99.90
60717;DHT22;46566;52.700;6.192;2022-08-14T06:52:40;21.80;99.90
60717;DHT22;46566;52.700;6.192;2022-08-14T06:55:07;21.90;99.90
60717;DHT22;46566;52.700;6.192;2022-08-14T07:00:08;22.00;99.90
60717;DHT22;46566;52.700;6.192;2022-08-14T07:02:35;22.10;99.90
60717;DHT22;46566;52.700;6.192;2022-08-14T07:05:20;22.20;99.90
60717;DHT22;46566;52.700;6.192;2022-08-14T07:08:05;22.30;99.90
60717;DHT22;46566;52.700;6.192;2022-08-14T07:10:31;22.30;99.90
60717;DHT22;46566;52.700;6.192;2022-08-14T07:12:58;22.40;99.90
60717;DHT22;46566;52.700;6.192;2022-08-14T07:15:24;22.50;99.90
60717;DHT22;46566;52.700;6.192;2022-08-14T07:17:50;22.60;99.90
60717;DHT22;46566;52.700;6.192;2022-08-14T07:20:16;22.70;99.90
60717;DHT22;46566;52.700;6.192;2022-08-14T07:22:48;22.80;99.90
60717;DHT22;46566;52.700;6.192;2022-08-14T07:25:41;22.90;99.90
60717;DHT22;46566;52.700;6.192;2022-08-14T07:28:19;23.00;99.90
60717;DHT22;46566;52.700;6.192;2022-08-14T07:30:45;23.00;99.90
60717;DHT22;46566;52.700;6.192;2022-08-14T07:33:11;23.10;99.90
60717;DHT22;46566;52.700;6.192;2022-08-14T07:35:39;23.20;99.90
60717;DHT22;46566;52.700;6.192;2022-08-14T07:38:06;23.30;99.90
60717;DHT22;46566;52.700;6.192;2022-08-14T07:40:32;23.40;99.90
60717;DHT22;46566;52.700;6.192;2022-08-14T07:43:00;23.50;99.90
60717;DHT22;46566;52.700;6.192;2022-08-14T07:45:26;23.60;99.90
60717;DHT22;46566;52.700;6.192;2022-08-14T07:47:52;23.70;99.90
60717;DHT22;46566;52.700;6.192;2022-08-14T07:50:22;23.80;99.90
60717;DHT22;46566;52.700;6.192;2022-08-14T07:52:48;24.00;99.90
60717;DHT22;46566;52.700;6.192;2022-08-14T07:55:15;24.10;99.90
60717;DHT22;46566;52.700;6.192;2022-08-14T07:57:42;24.20;99.90
60717;DHT22;46566;52.700;6.192;2022-08-14T08:00:12;24.30;99.90
60717;DHT22;46566;52.700;6.192;2022-08-14T08:02:41;24.40;99.90
60717;DHT22;46566;52.700;6.192;2022-08-14T08:05:08;24.80;99.90
60717;DHT22;46566;52.700;6.192;2022-08-14T08:07:35;25.80;99.90
60717;DHT22;46566;52.700;6.192;2022-08-14T08:10:13;27.00;94.10
60717;DHT22;46566;52.700;6.192;2022-08-14T08:15:27;29.00;74.50
60717;DHT22;46566;52.700;6.192;2022-08-14T08:17:53;29.60;71.40
60717;DHT22;46566;52.700;6.192;2022-08-14T08:20:22;29.90;64.50
60717;DHT22;46566;52.700;6.192;2022-08-14T08:22:50;30.00;64.80
60717;DHT22;46566;52.700;6.192;2022-08-14T08:25:17;30.40;63.60
60717;DHT22;46566;52.700;6.192;2022-08-14T08:28:04;30.80;62.40
60717;DHT22;46566;52.700;6.192;2022-08-14T08:30:38;31.40;61.30
60717;DHT22;46566;52.700;6.192;2022-08-14T08:33:05;31.90;58.80
60717;DHT22;46566;52.700;6.192;2022-08-14T08:35:34;32.30;58.30
60717;DHT22;46566;52.700;6.192;2022-08-14T08:38:22;32.60;57.20
60717;DHT22;46566;52.700;6.192;2022-08-14T08:40:49;32.80;57.20
60717;DHT22;46566;52.700;6.192;2022-08-14T08:43:21;33.20;55.20
60717;DHT22;46566;52.700;6.192;2022-08-14T08:46:13;33.50;54.60
60717;DHT22;46566;52.700;6.192;2022-08-14T08:48:48;33.60;51.80
60717;DHT22;46566;52.700;6.192;2022-08-14T08:56:49;34.10;50.50
60717;DHT22;46566;52.700;6.192;2022-08-14T09:02:09;34.70;48.10
60717;DHT22;46566;52.700;6.192;2022-08-14T09:04:37;34.90;47.80
60717;DHT22;46566;52.700;6.192;2022-08-14T09:07:03;34.90;47.50
60717;DHT22;46566;52.700;6.192;2022-08-14T09:09:31;35.10;47.80
60717;DHT22;46566;52.700;6.192;2022-08-14T09:12:22;35.20;48.10
60717;DHT22;46566;52.700;6.192;2022-08-14T09:14:51;35.40;46.80
60717;DHT22;46566;52.700;6.192;2022-08-14T09:17:17;35.20;47.40
60717;DHT22;46566;52.700;6.192;2022-08-14T09:20:03;34.90;46.30
60717;DHT22;46566;52.700;6.192;2022-08-14T09:22:30;35.30;47.70
60717;DHT22;46566;52.700;6.192;2022-08-14T09:24:56;35.60;46.20
60717;DHT22;46566;52.700;6.192;2022-08-14T09:27:21;35.10;46.30
60717;DHT22;46566;52.700;6.192;2022-08-14T09:30:10;34.90;46.00
60717;DHT22;46566;52.700;6.192;2022-08-14T09:38:53;34.70;47.00
60717;DHT22;46566;52.700;6.192;2022-08-14T09:50:32;33.50;47.50
60717;DHT22;46566;52.700;6.192;2022-08-14T09:53:09;33.50;49.10
60717;DHT22;46566;52.700;6.192;2022-08-14T09:55:36;33.50;48.10
60717;DHT22;46566;52.700;6.192;2022-08-14T09:58:35;33.30;48.30
60717;DHT22;46566;52.700;6.192;2022-08-14T10:01:08;33.10;47.60
60717;DHT22;46566;52.700;6.192;2022-08-14T10:09:30;32.90;48.60
60717;DHT22;46566;52.700;6.192;2022-08-14T10:11:58;32.60;48.70
60717;DHT22;46566;52.700;6.192;2022-08-14T10:14:27;32.40;48.60
60717;DHT22;46566;52.700;6.192;2022-08-14T10:16:56;32.40;50.00
60717;DHT22;46566;52.700;6.192;2022-08-14T10:19:47;32.60;50.60
60717;DHT22;46566;52.700;6.192;2022-08-14T10:22:13;32.90;49.60
60717;DHT22;46566;52.700;6.192;2022-08-14T10:24:41;32.90;49.20
60717;DHT22;46566;52.700;6.192;2022-08-14T10:33:11;32.90;49.20
60717;DHT22;46566;52.700;6.192;2022-08-14T10:35:42;32.80;49.50
60717;DHT22;46566;52.700;6.192;2022-08-14T10:38:08;32.60;49.10
60717;DHT22;46566;52.700;6.192;2022-08-14T10:40:35;32.40;49.30
60717;DHT22;46566;52.700;6.192;2022-08-14T10:43:26;32.50;49.50
60717;DHT22;46566;52.700;6.192;2022-08-14T10:45:59;32.80;50.90
60717;DHT22;46566;52.700;6.192;2022-08-14T10:48:26;33.10;48.80
60717;DHT22;46566;52.700;6.192;2022-08-14T10:51:23;33.30;48.80
60717;DHT22;46566;52.700;6.192;2022-08-14T10:53:53;33.40;47.40
60717;DHT22;46566;52.700;6.192;2022-08-14T10:59:16;33.80;47.40
60717;DHT22;46566;52.700;6.192;2022-08-14T11:01:41;33.60;47.50
60717;DHT22;46566;52.700;6.192;2022-08-14T11:04:20;33.60;47.30
60717;DHT22;46566;52.700;6.192;2022-08-14T11:06:57;33.80;47.70
60717;DHT22;46566;52.700;6.192;2022-08-14T11:09:23;34.00;47.60
60717;DHT22;46566;52.700;6.192;2022-08-14T11:11:54;34.00;46.90
60717;DHT22;46566;52.700;6.192;2022-08-14T11:14:20;33.70;46.30
60717;DHT22;46566;52.700;6.192;2022-08-14T11:17:12;33.40;47.90
60717;DHT22;46566;52.700;6.192;2022-08-14T11:19:38;33.40;47.90
60717;DHT22;46566;52.700;6.192;2022-08-14T11:22:04;33.50;47.50
60717;DHT22;46566;52.700;6.192;2022-08-14T11:24:30;33.50;46.70
60717;DHT22;46566;52.700;6.192;2022-08-14T11:27:22;33.60;46.20
60717;DHT22;46566;52.700;6.192;2022-08-14T11:29:49;33.90;47.20
60717;DHT22;46566;52.700;6.192;2022-08-14T11:32:16;34.20;46.30
60717;DHT22;46566;52.700;6.192;2022-08-14T11:34:45;34.40;46.80
60717;DHT22;46566;52.700;6.192;2022-08-14T11:37:36;34.60;45.50
60717;DHT22;46566;52.700;6.192;2022-08-14T11:40:02;34.60;44.60
60717;DHT22;46566;52.700;6.192;2022-08-14T11:42:29;34.60;44.40
60717;DHT22;46566;52.700;6.192;2022-08-14T11:45:16;34.70;44.70
60717;DHT22;46566;52.700;6.192;2022-08-14T11:47:43;34.90;44.50
60717;DHT22;46566;52.700;6.192;2022-08-14T11:50:20;34.90;44.40
60717;DHT22;46566;52.700;6.192;2022-08-14T11:52:48;34.80;43.90
60717;DHT22;46566;52.700;6.192;2022-08-14T11:55:35;34.60;43.60
60717;DHT22;46566;52.700;6.192;2022-08-14T11:58:09;34.90;45.70
60717;DHT22;46566;52.700;6.192;2022-08-14T12:01:04;35.20;44.10
60717;DHT22;46566;52.700;6.192;2022-08-14T12:03:39;35.50;44.20
60717;DHT22;46566;52.700;6.192;2022-08-14T12:06:07;35.60;42.90
60717;DHT22;46566;52.700;6.192;2022-08-14T12:08:35;35.40;42.60
60717;DHT22;46566;52.700;6.192;2022-08-14T12:11:19;34.90;43.60
60717;DHT22;46566;52.700;6.192;2022-08-14T12:13:46;34.80;44.60
60717;DHT22;46566;52.700;6.192;2022-08-14T12:16:13;35.00;45.20
60717;DHT22;46566;52.700;6.192;2022-08-14T12:19:03;35.00;44.10
60717;DHT22;46566;52.700;6.192;2022-08-14T12:21:30;35.10;43.90
60717;DHT22;46566;52.700;6.192;2022-08-14T12:24:05;34.90;43.50
60717;DHT22;46566;52.700;6.192;2022-08-14T12:26:31;34.90;43.50
60717;DHT22;46566;52.700;6.192;2022-08-14T12:29:22;34.60;43.80
60717;DHT22;46566;52.700;6.192;2022-08-14T12:31:58;34.30;43.80
60717;DHT22;46566;52.700;6.192;2022-08-14T12:34:30;34.40;45.00
60717;DHT22;46566;52.700;6.192;2022-08-14T12:37:13;34.60;44.40
60717;DHT22;46566;52.700;6.192;2022-08-14T12:39:39;34.80;43.80
60717;DHT22;46566;52.700;6.192;2022-08-14T12:42:05;35.00;44.60
60717;DHT22;46566;52.700;6.192;2022-08-14T12:44:34;35.10;43.40
60717;DHT22;46566;52.700;6.192;2022-08-14T12:47:14;35.10;43.50
60717;DHT22;46566;52.700;6.192;2022-08-14T12:49:49;35.40;43.80
60717;DHT22;46566;52.700;6.192;2022-08-14T12:52:49;35.70;44.00
60717;DHT22;46566;52.700;6.192;2022-08-14T12:55:16;35.80;42.20
60717;DHT22;46566;52.700;6.192;2022-08-14T12:57:44;35.80;41.70
60717;DHT22;46566;52.700;6.192;2022-08-14T13:00:22;35.70;40.20
60717;DHT22;46566;52.700;6.192;2022-08-14T13:02:58;35.50;40.10
60717;DHT22;46566;52.700;6.192;2022-08-14T13:05:29;35.00;41.50
60717;DHT22;46566;52.700;6.192;2022-08-14T13:07:57;34.70;41.90
60717;DHT22;46566;52.700;6.192;2022-08-14T13:10:23;34.80;42.00
60717;DHT22;46566;52.700;6.192;2022-08-14T13:13:08;34.70;41.80
60717;DHT22;46566;52.700;6.192;2022-08-14T13:15:35;34.70;42.70
60717;DHT22;46566;52.700;6.192;2022-08-14T13:18:01;34.60;43.10
60717;DHT22;46566;52.700;6.192;2022-08-14T13:20:29;34.80;43.10
60717;DHT22;46566;52.700;6.192;2022-08-14T13:23:14;34.80;43.80
60717;DHT22;46566;52.700;6.192;2022-08-14T13:25:43;35.10;44.00
60717;DHT22;46566;52.700;6.192;2022-08-14T13:28:10;35.30;43.40
60717;DHT22;46566;52.700;6.192;2022-08-14T13:36:54;35.60;43.00
60717;DHT22;46566;52.700;6.192;2022-08-14T13:39:32;35.30;43.10
60717;DHT22;46566;52.700;6.192;2022-08-14T13:41:59;35.10;43.30
60717;DHT22;46566;52.700;6.192;2022-08-14T13:44:56;34.80;43.70
60717;DHT22;46566;52.700;6.192;2022-08-14T13:47:25;34.90;43.70
60717;DHT22;46566;52.700;6.192;2022-08-14T13:49:56;35.10;44.20
60717;DHT22;46566;52.700;6.192;2022-08-14T13:52:50;35.20;43.30
60717;DHT22;46566;52.700;6.192;2022-08-14T13:55:24;35.30;43.40
60717;DHT22;46566;52.700;6.192;2022-08-14T13:58:09;35.30;43.80
60717;DHT22;46566;52.700;6.192;2022-08-14T14:00:38;35.00;43.60
60717;DHT22;46566;52.700;6.192;2022-08-14T14:03:04;34.60;43.50
60717;DHT22;46566;52.700;6.192;2022-08-14T14:05:34;34.10;44.10
60717;DHT22;46566;52.700;6.192;2022-08-14T14:08:31;34.00;44.50
60717;DHT22;46566;52.700;6.192;2022-08-14T14:11:01;33.90;44.80
60717;DHT22;46566;52.700;6.192;2022-08-14T14:13:28;33.90;44.80
60717;DHT22;46566;52.700;6.192;2022-08-14T14:16:12;34.00;44.70
60717;DHT22;46566;52.700;6.192;2022-08-14T14:18:38;33.70;44.90
60717;DHT22;46566;52.700;6.192;2022-08-14T14:21:05;33.40;45.50
60717;DHT22;46566;52.700;6.192;2022-08-14T14:23:33;33.40;45.60
60717;DHT22;46566;52.700;6.192;2022-08-14T14:25:59;33.40;45.70
60717;DHT22;46566;52.700;6.192;2022-08-14T14:31:35;33.50;45.60
60717;DHT22;46566;52.700;6.192;2022-08-14T14:34:02;33.70;45.60
60717;DHT22;46566;52.700;6.192;2022-08-14T14:58:48;34.40;44.00
60717;DHT22;46566;52.700;6.192;2022-08-14T15:14:29;33.50;45.00
60717;DHT22;46566;52.700;6.192;2022-08-14T15:17:14;33.30;45.40
60717;DHT22;46566;52.700;6.192;2022-08-14T15:26:16;33.00;45.80
60717;DHT22;46566;52.700;6.192;2022-08-14T15:29:07;33.00;46.40
60717;DHT22;46566;52.700;6.192;2022-08-14T15:43:40;32.70;46.20
60717;DHT22;46566;52.700;6.192;2022-08-14T15:46:10;32.60;46.30
60717;DHT22;46566;52.700;6.192;2022-08-14T16:22:13;32.20;48.50
60717;DHT22;46566;52.700;6.192;2022-08-14T16:45:11;31.80;49.10
60717;DHT22;46566;52.700;6.192;2022-08-14T16:54:15;31.50;50.30
60717;DHT22;46566;52.700;6.192;2022-08-14T16:57:30;31.50;50.60
60717;DHT22;46566;52.700;6.192;2022-08-14T17:03:17;31.50;50.00
60717;DHT22;46566;52.700;6.192;2022-08-14T17:06:08;31.40;50.20
60717;DHT22;46566;52.700;6.192;2022-08-14T17:12:19;31.40;50.30
60717;DHT22;46566;52.700;6.192;2022-08-14T17:15:12;31.30;50.50
60717;DHT22;46566;52.700;6.192;2022-08-14T17:17:56;31.30;50.30
60717;DHT22;46566;52.700;6.192;2022-08-14T17:23:33;31.30;53.30
60717;DHT22;46566;52.700;6.192;2022-08-14T17:26:50;31.30;55.60
60717;DHT22;46566;52.700;6.192;2022-08-14T17:35:28;31.10;51.30
60717;DHT22;46566;52.700;6.192;2022-08-14T17:44:29;30.90;51.30
60717;DHT22;46566;52.700;6.192;2022-08-14T17:47:13;30.90;51.40
60717;DHT22;46566;52.700;6.192;2022-08-14T17:50:00;30.90;51.60
60717;DHT22;46566;52.700;6.192;2022-08-14T17:52:43;30.80;52.10
60717;DHT22;46566;52.700;6.192;2022-08-14T18:12:01;30.40;55.90
60717;DHT22;46566;52.700;6.192;2022-08-14T18:14:48;30.30;55.00
60717;DHT22;46566;52.700;6.192;2022-08-14T18:38:32;29.80;57.40
60717;DHT22;46566;52.700;6.192;2022-08-14T18:47:31;29.50;58.10
60717;DHT22;46566;52.700;6.192;2022-08-14T19:06:14;29.00;59.30
60717;DHT22;46566;52.700;6.192;2022-08-14T19:08:47;28.90;59.70
60717;DHT22;46566;52.700;6.192;2022-08-14T19:11:48;28.80;59.70
60717;DHT22;46566;52.700;6.192;2022-08-14T19:14:44;28.80;59.80
60717;DHT22;46566;52.700;6.192;2022-08-14T19:17:39;28.70;60.70
60717;DHT22;46566;52.700;6.192;2022-08-14T19:37:46;28.30;62.10
60717;DHT22;46566;52.700;6.192;2022-08-14T19:40:12;28.20;62.50
60717;DHT22;46566;52.700;6.192;2022-08-14T19:42:39;28.20;62.00
60717;DHT22;46566;52.700;6.192;2022-08-14T19:45:13;28.20;62.90
60717;DHT22;46566;52.700;6.192;2022-08-14T19:47:42;28.10;63.00
60717;DHT22;46566;52.700;6.192;2022-08-14T19:50:08;28.10;63.20
60717;DHT22;46566;52.700;6.192;2022-08-14T19:52:34;28.10;62.90
60717;DHT22;46566;52.700;6.192;2022-08-14T19:55:14;28.10;63.20
60717;DHT22;46566;52.700;6.192;2022-08-14T19:57:40;28.00;63.20
60717;DHT22;46566;52.700;6.192;2022-08-14T20:00:09;27.90;63.70
60717;DHT22;46566;52.700;6.192;2022-08-14T20:02:39;27.90;63.20
60717;DHT22;46566;52.700;6.192;2022-08-14T20:05:07;27.90;63.20
60717;DHT22;46566;52.700;6.192;2022-08-14T20:07:38;27.80;64.20
60717;DHT22;46566;52.700;6.192;2022-08-14T20:10:10;27.80;63.90
60717;DHT22;46566;52.700;6.192;2022-08-14T20:12:58;27.70;64.10
60717;DHT22;46566;52.700;6.192;2022-08-14T20:15:26;27.60;64.90
60717;DHT22;46566;52.700;6.192;2022-08-14T20:17:53;27.60;65.30
60717;DHT22;46566;52.700;6.192;2022-08-14T20:20:22;27.50;64.90
60717;DHT22;46566;52.700;6.192;2022-08-14T20:22:47;27.50;66.00
60717;DHT22;46566;52.700;6.192;2022-08-14T20:27:56;27.40;65.70
60717;DHT22;46566;52.700;6.192;2022-08-14T20:33:28;27.30;67.10